sensor_id;sensor_type;location;lat;lon;timestamp;temperature;humidity
3037;DHT22;1528;52.550;13.408;2022-07-22T00:01:11;22.40;30.00
3037;DHT22;1528;52.550;13.408;2022-07-22T00:03:57;22.50;30.00
3037;DHT22;1528;52.550;13.408;2022-07-22T00:06:43;22.30;30.00
3037;DHT22;1528;52.550;13.408;2022-07-22T00:09:30;22.50;30.00
3037;DHT22;1528;52.550;13.408;2022-07-22T00:12:16;22.40;29.90
3037;DHT22;1528;52.550;13.408;2022-07-22T00:15:03;22.40;29.90
3037;DHT22;1528;52.550;13.408;2022-07-22T00:17:48;22.40;29.70
3037;DHT22;1528;52.550;13.408;2022-07-22T00:20:34;22.60;29.30
3037;DHT22;1528;52.550;13.408;2022-07-22T00:23:20;22.50;29.00
3037;DHT22;1528;52.550;13.408;2022-07-22T00:26:07;22.60;28.70
3037;DHT22;1528;52.550;13.408;2022-07-22T00:28:52;22.40;28.60
3037;DHT22;1528;52.550;13.408;2022-07-22T00:31:38;22.40;28.70
3037;DHT22;1528;52.550;13.408;2022-07-22T00:34:23;22.50;28.50
3037;DHT22;1528;52.550;13.408;2022-07-22T00:37:08;22.50;28.30
3037;DHT22;1528;52.550;13.408;2022-07-22T00:39:54;22.40;28.50
3037;DHT22;1528;52.550;13.408;2022-07-22T00:42:41;22.30;28.40
3037;DHT22;1528;52.550;13.408;2022-07-22T00:45:26;22.30;28.30
3037;DHT22;1528;52.550;13.408;2022-07-22T00:48:11;22.20;28.20
3037;DHT22;1528;52.550;13.408;2022-07-22T00:50:57;22.20;28.00
3037;DHT22;1528;52.550;13.408;2022-07-22T00:53:43;22.10;28.40
3037;DHT22;1528;52.550;13.408;2022-07-22T00:56:29;22.00;28.70
3037;DHT22;1528;52.550;13.408;2022-07-22T00:59:16;22.00;28.60
3037;DHT22;1528;52.550;13.408;2022-07-22T01:02:02;22.10;28.30
3037;DHT22;1528;52.550;13.408;2022-07-22T01:04:49;22.10;28.40
3037;DHT22;1528;52.550;13.408;2022-07-22T01:07:34;21.90;28.50
3037;DHT22;1528;52.550;13.408;2022-07-22T01:10:21;21.80;29.20
3037;DHT22;1528;52.550;13.408;2022-07-22T01:13:07;21.80;28.80
3037;DHT22;1528;52.550;13.408;2022-07-22T01:15:54;21.80;28.70
3037;DHT22;1528;52.550;13.408;2022-07-22T01:18:40;21.80;28.90
3037;DHT22;1528;52.550;13.408;2022-07-22T01:21:27;21.80;28.90
3037;DHT22;1528;52.550;13.408;2022-07-22T01:24:12;21.80;29.10
3037;DHT22;1528;52.550;13.408;2022-07-22T01:26:58;21.60;29.20
3037;DHT22;1528;52.550;13.408;2022-07-22T01:29:43;21.50;29.60
3037;DHT22;1528;52.550;13.408;2022-07-22T01:32:29;21.50;29.60
3037;DHT22;1528;52.550;13.408;2022-07-22T01:35:14;21.50;29.60
3037;DHT22;1528;52.550;13.408;2022-07-22T01:38:01;21.50;29.70
3037;DHT22;1528;52.550;13.408;2022-07-22T01:40:46;21.60;29.70
3037;DHT22;1528;52.550;13.408;2022-07-22T01:43:32;21.50;29.80
3037;DHT22;1528;52.550;13.408;2022-07-22T01:46:17;21.60;29.90
3037;DHT22;1528;52.550;13.408;2022-07-22T01:49:03;21.60;29.80
3037;DHT22;1528;52.550;13.408;2022-07-22T01:51:49;21.50;29.90
3037;DHT22;1528;52.550;13.408;2022-07-22T01:54:35;21.50;30.00
3037;DHT22;1528;52.550;13.408;2022-07-22T01:57:21;21.40;30.20
3037;DHT22;1528;52.550;13.408;2022-07-22T02:00:08;21.40;30.20
3037;DHT22;1528;52.550;13.408;2022-07-22T02:02:54;21.50;30.20
3037;DHT22;1528;52.550;13.408;2022-07-22T02:05:39;21.40;30.00
3037;DHT22;1528;52.550;13.408;2022-07-22T02:08:25;21.40;30.60
3037;DHT22;1528;52.550;13.408;2022-07-22T02:11:12;21.30;30.70
3037;DHT22;1528;52.550;13.408;2022-07-22T02:13:57;21.30;30.70
3037;DHT22;1528;52.550;13.408;2022-07-22T02:16:43;21.20;31.00
3037;DHT22;1528;52.550;13.408;2022-07-22T02:19:28;21.20;31.40
3037;DHT22;1528;52.550;13.408;2022-07-22T02:22:14;21.10;31.50
3037;DHT22;1528;52.550;13.408;2022-07-22T02:24:59;21.00;32.00
3037;DHT22;1528;52.550;13.408;2022-07-22T02:27:46;21.10;31.90
3037;DHT22;1528;52.550;13.408;2022-07-22T02:30:32;21.00;32.30
3037;DHT22;1528;52.550;13.408;2022-07-22T02:33:17;21.00;32.50
3037;DHT22;1528;52.550;13.408;2022-07-22T02:36:03;21.00;32.80
3037;DHT22;1528;52.550;13.408;2022-07-22T02:38:48;20.80;33.20
3037;DHT22;1528;52.550;13.408;2022-07-22T02:41:34;20.80;33.10
3037;DHT22;1528;52.550;13.408;2022-07-22T02:44:21;20.80;33.40
3037;DHT22;1528;52.550;13.408;2022-07-22T02:47:07;20.80;33.60
3037;DHT22;1528;52.550;13.408;2022-07-22T02:49:52;20.80;33.90
3037;DHT22;1528;52.550;13.408;2022-07-22T02:52:38;20.80;33.90
3037;DHT22;1528;52.550;13.408;2022-07-22T02:55:24;20.70;35.10
3037;DHT22;1528;52.550;13.408;2022-07-22T02:58:10;20.60;34.40
3037;DHT22;1528;52.550;13.408;2022-07-22T03:00:57;20.70;34.50
3037;DHT22;1528;52.550;13.408;2022-07-22T03:03:42;20.70;34.50
3037;DHT22;1528;52.550;13.408;2022-07-22T03:06:28;20.70;34.30
3037;DHT22;1528;52.550;13.408;2022-07-22T03:09:14;20.60;34.50
3037;DHT22;1528;52.550;13.408;2022-07-22T03:11:59;20.60;34.90
3037;DHT22;1528;52.550;13.408;2022-07-22T03:14:45;20.40;35.20
3037;DHT22;1528;52.550;13.408;2022-07-22T03:17:34;20.40;35.50
3037;DHT22;1528;52.550;13.408;2022-07-22T03:20:20;20.40;35.70
3037;DHT22;1528;52.550;13.408;2022-07-22T03:23:05;20.50;35.70
3037;DHT22;1528;52.550;13.408;2022-07-22T03:25:51;20.40;36.20
3037;DHT22;1528;52.550;13.408;2022-07-22T03:28:36;20.40;36.20
3037;DHT22;1528;52.550;13.408;2022-07-22T03:31:22;20.40;36.20
3037;DHT22;1528;52.550;13.408;2022-07-22T03:34:09;20.30;36.50
3037;DHT22;1528;52.550;13.408;2022-07-22T03:36:54;20.30;36.60
3037;DHT22;1528;52.550;13.408;2022-07-22T03:39:40;20.30;37.10
3037;DHT22;1528;52.550;13.408;2022-07-22T03:42:25;20.30;37.10
3037;DHT22;1528;52.550;13.408;2022-07-22T03:45:11;20.30;36.90
3037;DHT22;1528;52.550;13.408;2022-07-22T03:47:56;20.30;37.20
3037;DHT22;1528;52.550;13.408;2022-07-22T03:50:44;20.30;37.30
3037;DHT22;1528;52.550;13.408;2022-07-22T03:53:29;20.20;37.60
3037;DHT22;1528;52.550;13.408;2022-07-22T03:56:16;20.20;37.50
3037;DHT22;1528;52.550;13.408;2022-07-22T03:59:02;20.20;37.40
3037;DHT22;1528;52.550;13.408;2022-07-22T04:01:47;20.40;37.30
3037;DHT22;1528;52.550;13.408;2022-07-22T04:04:33;20.40;37.10
3037;DHT22;1528;52.550;13.408;2022-07-22T04:07:20;20.40;37.10
3037;DHT22;1528;52.550;13.408;2022-07-22T04:10:06;20.50;36.70
3037;DHT22;1528;52.550;13.408;2022-07-22T04:12:51;20.60;36.20
3037;DHT22;1528;52.550;13.408;2022-07-22T04:15:37;20.50;36.40
3037;DHT22;1528;52.550;13.408;2022-07-22T04:18:23;20.60;36.20
3037;DHT22;1528;52.550;13.408;2022-07-22T04:21:08;20.50;36.30
3037;DHT22;1528;52.550;13.408;2022-07-22T04:23:55;20.50;36.80
3037;DHT22;1528;52.550;13.408;2022-07-22T04:26:41;20.40;36.70
3037;DHT22;1528;52.550;13.408;2022-07-22T04:29:26;20.50;36.30
3037;DHT22;1528;52.550;13.408;2022-07-22T04:32:12;20.40;36.90
3037;DHT22;1528;52.550;13.408;2022-07-22T04:34:58;20.40;36.70
3037;DHT22;1528;52.550;13.408;2022-07-22T04:37:43;20.40;36.60
3037;DHT22;1528;52.550;13.408;2022-07-22T04:40:30;20.40;36.70
3037;DHT22;1528;52.550;13.408;2022-07-22T04:43:16;20.40;36.60
3037;DHT22;1528;52.550;13.408;2022-07-22T04:46:01;20.40;36.60
3037;DHT22;1528;52.550;13.408;2022-07-22T04:48:47;20.40;36.50
3037;DHT22;1528;52.550;13.408;2022-07-22T04:51:33;20.30;37.00
3037;DHT22;1528;52.550;13.408;2022-07-22T04:54:18;20.50;36.70
3037;DHT22;1528;52.550;13.408;2022-07-22T04:57:05;20.50;36.60
3037;DHT22;1528;52.550;13.408;2022-07-22T04:59:51;20.60;36.20
3037;DHT22;1528;52.550;13.408;2022-07-22T05:02:36;20.60;36.10
3037;DHT22;1528;52.550;13.408;2022-07-22T05:05:22;20.60;36.00
3037;DHT22;1528;52.550;13.408;2022-07-22T05:08:08;20.50;36.20
3037;DHT22;1528;52.550;13.408;2022-07-22T05:10:53;20.40;36.40
3037;DHT22;1528;52.550;13.408;2022-07-22T05:13:40;20.50;36.40
3037;DHT22;1528;52.550;13.408;2022-07-22T05:16:26;20.70;36.00
3037;DHT22;1528;52.550;13.408;2022-07-22T05:19:12;20.60;35.70
3037;DHT22;1528;52.550;13.408;2022-07-22T05:21:57;20.80;35.50
3037;DHT22;1528;52.550;13.408;2022-07-22T05:24:43;20.90;34.70
3037;DHT22;1528;52.550;13.408;2022-07-22T05:27:28;20.70;35.10
3037;DHT22;1528;52.550;13.408;2022-07-22T05:30:15;20.70;35.00
3037;DHT22;1528;52.550;13.408;2022-07-22T05:33:01;20.80;34.80
3037;DHT22;1528;52.550;13.408;2022-07-22T05:35:46;20.70;35.10
3037;DHT22;1528;52.550;13.408;2022-07-22T05:38:32;20.80;35.20
3037;DHT22;1528;52.550;13.408;2022-07-22T05:41:17;20.80;35.70
3037;DHT22;1528;52.550;13.408;2022-07-22T05:44:03;20.90;34.70
3037;DHT22;1528;52.550;13.408;2022-07-22T05:46:50;20.90;34.60
3037;DHT22;1528;52.550;13.408;2022-07-22T05:49:36;21.00;34.30
3037;DHT22;1528;52.550;13.408;2022-07-22T05:52:22;20.90;34.50
3037;DHT22;1528;52.550;13.408;2022-07-22T05:55:08;20.80;34.70
3037;DHT22;1528;52.550;13.408;2022-07-22T05:57:54;20.80;34.70
3037;DHT22;1528;52.550;13.408;2022-07-22T06:00:39;20.80;34.70
3037;DHT22;1528;52.550;13.408;2022-07-22T06:03:27;21.10;34.20
3037;DHT22;1528;52.550;13.408;2022-07-22T06:06:12;21.10;33.60
3037;DHT22;1528;52.550;13.408;2022-07-22T06:08:57;21.10;33.70
3037;DHT22;1528;52.550;13.408;2022-07-22T06:11:43;21.20;33.10
3037;DHT22;1528;52.550;13.408;2022-07-22T06:14:28;21.40;33.00
3037;DHT22;1528;52.550;13.408;2022-07-22T06:17:14;21.40;32.60
3037;DHT22;1528;52.550;13.408;2022-07-22T06:20:01;21.40;32.70
3037;DHT22;1528;52.550;13.408;2022-07-22T06:22:46;21.40;32.70
3037;DHT22;1528;52.550;13.408;2022-07-22T06:25:39;21.60;32.10
3037;DHT22;1528;52.550;13.408;2022-07-22T06:28:25;21.70;32.00
3037;DHT22;1528;52.550;13.408;2022-07-22T06:31:10;21.80;32.00
3037;DHT22;1528;52.550;13.408;2022-07-22T06:33:56;21.70;31.70
3037;DHT22;1528;52.550;13.408;2022-07-22T06:36:43;21.80;31.70
3037;DHT22;1528;52.550;13.408;2022-07-22T06:39:29;21.80;31.30
3037;DHT22;1528;52.550;13.408;2022-07-22T06:42:17;21.90;30.50
3037;DHT22;1528;52.550;13.408;2022-07-22T06:45:03;21.90;31.10
3037;DHT22;1528;52.550;13.408;2022-07-22T06:47:48;21.90;30.70
3037;DHT22;1528;52.550;13.408;2022-07-22T06:50:35;21.90;30.80
3037;DHT22;1528;52.550;13.408;2022-07-22T06:53:23;21.90;30.40
3037;DHT22;1528;52.550;13.408;2022-07-22T06:56:18;22.00;30.20
3037;DHT22;1528;52.550;13.408;2022-07-22T06:59:03;22.00;30.40
3037;DHT22;1528;52.550;13.408;2022-07-22T07:01:48;22.00;30.50
3037;DHT22;1528;52.550;13.408;2022-07-22T07:04:34;22.10;30.30
3037;DHT22;1528;52.550;13.408;2022-07-22T07:07:20;22.10;30.00
3037;DHT22;1528;52.550;13.408;2022-07-22T07:10:08;22.20;30.00
3037;DHT22;1528;52.550;13.408;2022-07-22T07:12:56;22.20;29.80
3037;DHT22;1528;52.550;13.408;2022-07-22T07:15:44;22.30;29.70
3037;DHT22;1528;52.550;13.408;2022-07-22T07:18:29;22.30;29.50
3037;DHT22;1528;52.550;13.408;2022-07-22T07:21:15;22.40;29.30
3037;DHT22;1528;52.550;13.408;2022-07-22T07:24:01;22.60;28.90
3037;DHT22;1528;52.550;13.408;2022-07-22T07:26:47;22.80;28.60
3037;DHT22;1528;52.550;13.408;2022-07-22T07:29:33;22.70;28.60
3037;DHT22;1528;52.550;13.408;2022-07-22T07:32:18;22.80;28.30
3037;DHT22;1528;52.550;13.408;2022-07-22T07:35:06;22.80;28.20
3037;DHT22;1528;52.550;13.408;2022-07-22T07:37:51;22.60;28.30
3037;DHT22;1528;52.550;13.408;2022-07-22T07:40:37;22.60;28.60
3037;DHT22;1528;52.550;13.408;2022-07-22T07:43:24;22.60;28.60
3037;DHT22;1528;52.550;13.408;2022-07-22T07:46:09;22.70;28.40
3037;DHT22;1528;52.550;13.408;2022-07-22T07:48:55;22.60;28.60
3037;DHT22;1528;52.550;13.408;2022-07-22T07:51:44;22.80;28.80
3037;DHT22;1528;52.550;13.408;2022-07-22T07:54:29;22.70;28.50
3037;DHT22;1528;52.550;13.408;2022-07-22T07:57:15;22.90;28.50
3037;DHT22;1528;52.550;13.408;2022-07-22T08:00:05;22.70;28.20
3037;DHT22;1528;52.550;13.408;2022-07-22T08:02:50;22.80;28.00
3037;DHT22;1528;52.550;13.408;2022-07-22T08:05:36;22.90;28.00
3037;DHT22;1528;52.550;13.408;2022-07-22T08:08:23;22.90;28.10
3037;DHT22;1528;52.550;13.408;2022-07-22T08:11:08;23.10;26.70
3037;DHT22;1528;52.550;13.408;2022-07-22T08:13:54;23.50;26.30
3037;DHT22;1528;52.550;13.408;2022-07-22T08:16:41;23.40;26.60
3037;DHT22;1528;52.550;13.408;2022-07-22T08:19:29;23.50;26.00
3037;DHT22;1528;52.550;13.408;2022-07-22T08:22:14;23.60;26.20
3037;DHT22;1528;52.550;13.408;2022-07-22T08:25:00;23.60;25.80
3037;DHT22;1528;52.550;13.408;2022-07-22T08:27:45;23.80;25.80
3037;DHT22;1528;52.550;13.408;2022-07-22T08:30:31;23.70;23.70
3037;DHT22;1528;52.550;13.408;2022-07-22T08:33:18;24.00;23.40
3037;DHT22;1528;52.550;13.408;2022-07-22T08:36:04;24.20;22.90
3037;DHT22;1528;52.550;13.408;2022-07-22T08:38:49;24.20;22.20
3037;DHT22;1528;52.550;13.408;2022-07-22T08:41:37;24.10;22.90
3037;DHT22;1528;52.550;13.408;2022-07-22T08:44:23;23.80;23.30
3037;DHT22;1528;52.550;13.408;2022-07-22T08:47:09;23.70;23.70
3037;DHT22;1528;52.550;13.408;2022-07-22T08:49:56;23.70;24.00
3037;DHT22;1528;52.550;13.408;2022-07-22T08:52:42;23.50;24.60
3037;DHT22;1528;52.550;13.408;2022-07-22T08:55:27;23.20;25.20
3037;DHT22;1528;52.550;13.408;2022-07-22T08:58:13;23.20;25.70
3037;DHT22;1528;52.550;13.408;2022-07-22T09:01:07;23.50;25.40
3037;DHT22;1528;52.550;13.408;2022-07-22T09:03:54;23.60;25.20
3037;DHT22;1528;52.550;13.408;2022-07-22T09:06:48;23.50;25.10
3037;DHT22;1528;52.550;13.408;2022-07-22T09:09:34;23.60;24.80
3037;DHT22;1528;52.550;13.408;2022-07-22T09:12:20;23.80;24.40
3037;DHT22;1528;52.550;13.408;2022-07-22T09:15:07;23.90;24.20
3037;DHT22;1528;52.550;13.408;2022-07-22T09:17:53;23.80;24.50
3037;DHT22;1528;52.550;13.408;2022-07-22T09:20:39;23.60;24.60
3037;DHT22;1528;52.550;13.408;2022-07-22T09:23:26;23.70;24.70
3037;DHT22;1528;52.550;13.408;2022-07-22T09:26:31;23.50;25.30
3037;DHT22;1528;52.550;13.408;2022-07-22T09:29:17;23.50;25.50
3037;DHT22;1528;52.550;13.408;2022-07-22T09:32:03;23.50;25.60
3037;DHT22;1528;52.550;13.408;2022-07-22T09:34:48;23.40;25.50
3037;DHT22;1528;52.550;13.408;2022-07-22T09:37:34;23.40;25.50
3037;DHT22;1528;52.550;13.408;2022-07-22T09:40:22;23.20;26.00
3037;DHT22;1528;52.550;13.408;2022-07-22T09:43:10;23.40;26.00
3037;DHT22;1528;52.550;13.408;2022-07-22T09:45:58;23.80;25.40
3037;DHT22;1528;52.550;13.408;2022-07-22T09:48:44;24.00;24.90
3037;DHT22;1528;52.550;13.408;2022-07-22T09:51:30;24.20;24.40
3037;DHT22;1528;52.550;13.408;2022-07-22T09:54:15;24.40;23.60
3037;DHT22;1528;52.550;13.408;2022-07-22T09:57:03;24.50;23.40
3037;DHT22;1528;52.550;13.408;2022-07-22T09:59:50;24.50;23.40
3037;DHT22;1528;52.550;13.408;2022-07-22T10:02:45;24.50;23.40
3037;DHT22;1528;52.550;13.408;2022-07-22T10:05:35;24.20;23.90
3037;DHT22;1528;52.550;13.408;2022-07-22T10:08:21;23.90;24.70
3037;DHT22;1528;52.550;13.408;2022-07-22T10:11:12;23.80;24.20
3037;DHT22;1528;52.550;13.408;2022-07-22T10:14:01;23.90;23.80
3037;DHT22;1528;52.550;13.408;2022-07-22T10:16:47;24.10;23.60
3037;DHT22;1528;52.550;13.408;2022-07-22T10:19:33;24.40;23.50
3037;DHT22;1528;52.550;13.408;2022-07-22T10:22:52;24.60;23.40
3037;DHT22;1528;52.550;13.408;2022-07-22T10:25:54;24.60;23.20
3037;DHT22;1528;52.550;13.408;2022-07-22T10:28:42;24.60;23.20
3037;DHT22;1528;52.550;13.408;2022-07-22T10:31:29;24.80;22.90
3037;DHT22;1528;52.550;13.408;2022-07-22T10:34:14;25.00;22.40
3037;DHT22;1528;52.550;13.408;2022-07-22T10:37:00;25.10;22.10
3037;DHT22;1528;52.550;13.408;2022-07-22T10:40:13;25.20;22.00
3037;DHT22;1528;52.550;13.408;2022-07-22T10:43:08;25.40;20.80
3037;DHT22;1528;52.550;13.408;2022-07-22T10:45:57;25.50;21.00
3037;DHT22;1528;52.550;13.408;2022-07-22T10:48:54;25.40;21.00
3037;DHT22;1528;52.550;13.408;2022-07-22T10:52:09;25.50;20.90
3037;DHT22;1528;52.550;13.408;2022-07-22T10:55:16;25.70;20.50
3037;DHT22;1528;52.550;13.408;2022-07-22T10:58:42;25.80;21.00
3037;DHT22;1528;52.550;13.408;2022-07-22T11:01:30;26.10;20.60
3037;DHT22;1528;52.550;13.408;2022-07-22T11:04:19;26.30;19.80
3037;DHT22;1528;52.550;13.408;2022-07-22T11:07:07;26.10;20.30
3037;DHT22;1528;52.550;13.408;2022-07-22T11:09:53;26.00;20.90
3037;DHT22;1528;52.550;13.408;2022-07-22T11:12:39;26.60;20.10
3037;DHT22;1528;52.550;13.408;2022-07-22T11:15:25;27.10;18.90
3037;DHT22;1528;52.550;13.408;2022-07-22T11:18:11;27.00;18.40
3037;DHT22;1528;52.550;13.408;2022-07-22T11:20:58;26.70;19.20
3037;DHT22;1528;52.550;13.408;2022-07-22T11:23:48;26.90;18.80
3037;DHT22;1528;52.550;13.408;2022-07-22T11:26:38;26.80;18.70
3037;DHT22;1528;52.550;13.408;2022-07-22T11:29:26;26.80;18.70
3037;DHT22;1528;52.550;13.408;2022-07-22T11:32:14;26.90;18.50
3037;DHT22;1528;52.550;13.408;2022-07-22T11:35:00;26.80;18.50
3037;DHT22;1528;52.550;13.408;2022-07-22T11:37:57;26.60;18.90
3037;DHT22;1528;52.550;13.408;2022-07-22T11:40:43;26.80;18.20
3037;DHT22;1528;52.550;13.408;2022-07-22T11:43:37;26.60;18.70
3037;DHT22;1528;52.550;13.408;2022-07-22T11:46:23;26.70;18.70
3037;DHT22;1528;52.550;13.408;2022-07-22T11:49:13;27.00;18.30
3037;DHT22;1528;52.550;13.408;2022-07-22T11:51:58;26.90;17.70
3037;DHT22;1528;52.550;13.408;2022-07-22T11:54:46;27.10;17.50
3037;DHT22;1528;52.550;13.408;2022-07-22T11:57:31;27.10;17.50
3037;DHT22;1528;52.550;13.408;2022-07-22T12:00:17;27.10;17.30
3037;DHT22;1528;52.550;13.408;2022-07-22T12:03:03;26.70;18.00
3037;DHT22;1528;52.550;13.408;2022-07-22T12:05:49;26.60;18.40
3037;DHT22;1528;52.550;13.408;2022-07-22T12:08:39;26.90;17.80
3037;DHT22;1528;52.550;13.408;2022-07-22T12:11:26;26.40;18.10
3037;DHT22;1528;52.550;13.408;2022-07-22T12:14:16;26.20;18.40
3037;DHT22;1528;52.550;13.408;2022-07-22T12:17:03;25.90;19.10
3037;DHT22;1528;52.550;13.408;2022-07-22T12:19:49;25.90;19.40
3037;DHT22;1528;52.550;13.408;2022-07-22T12:22:44;26.10;19.20
3037;DHT22;1528;52.550;13.408;2022-07-22T12:25:30;26.80;17.00
3037;DHT22;1528;52.550;13.408;2022-07-22T12:28:17;27.00;16.30
3037;DHT22;1528;52.550;13.408;2022-07-22T12:31:02;27.10;16.90
3037;DHT22;1528;52.550;13.408;2022-07-22T12:33:48;27.10;16.80
3037;DHT22;1528;52.550;13.408;2022-07-22T12:36:34;27.30;17.40
3037;DHT22;1528;52.550;13.408;2022-07-22T12:39:19;29.00;14.90
3037;DHT22;1528;52.550;13.408;2022-07-22T12:42:16;30.70;11.40
3037;DHT22;1528;52.550;13.408;2022-07-22T12:45:05;31.30;9.50
3037;DHT22;1528;52.550;13.408;2022-07-22T12:47:52;31.70;8.80
3037;DHT22;1528;52.550;13.408;2022-07-22T12:50:41;33.60;6.50
3037;DHT22;1528;52.550;13.408;2022-07-22T12:53:27;36.00;1.90
3037;DHT22;1528;52.550;13.408;2022-07-22T12:56:13;33.80;3.40
3037;DHT22;1528;52.550;13.408;2022-07-22T12:58:59;33.50;4.40
3037;DHT22;1528;52.550;13.408;2022-07-22T13:01:46;34.80;3.00
3037;DHT22;1528;52.550;13.408;2022-07-22T13:04:33;35.60;1.00
3037;DHT22;1528;52.550;13.408;2022-07-22T13:07:21;38.00;1.00
3037;DHT22;1528;52.550;13.408;2022-07-22T13:10:09;41.00;1.00
3037;DHT22;1528;52.550;13.408;2022-07-22T13:12:59;42.30;1.00
3037;DHT22;1528;52.550;13.408;2022-07-22T13:15:44;41.30;1.00
3037;DHT22;1528;52.550;13.408;2022-07-22T13:18:31;39.70;1.00
3037;DHT22;1528;52.550;13.408;2022-07-22T13:21:21;38.40;1.00
3037;DHT22;1528;52.550;13.408;2022-07-22T13:24:10;38.30;1.00
3037;DHT22;1528;52.550;13.408;2022-07-22T13:27:00;37.30;1.00
3037;DHT22;1528;52.550;13.408;2022-07-22T13:29:45;39.80;1.00
3037;DHT22;1528;52.550;13.408;2022-07-22T13:32:31;41.70;1.00
3037;DHT22;1528;52.550;13.408;2022-07-22T13:35:19;44.30;1.00
3037;DHT22;1528;52.550;13.408;2022-07-22T13:38:05;44.70;1.00
3037;DHT22;1528;52.550;13.408;2022-07-22T13:40:50;45.40;1.00
3037;DHT22;1528;52.550;13.408;2022-07-22T13:43:36;47.10;1.00
3037;DHT22;1528;52.550;13.408;2022-07-22T13:46:22;46.90;1.00
3037;DHT22;1528;52.550;13.408;2022-07-22T13:49:12;48.10;1.00
3037;DHT22;1528;52.550;13.408;2022-07-22T13:51:59;48.40;1.00
3037;DHT22;1528;52.550;13.408;2022-07-22T13:54:45;47.70;1.00
3037;DHT22;1528;52.550;13.408;2022-07-22T13:57:31;48.70;1.00
3037;DHT22;1528;52.550;13.408;2022-07-22T14:00:17;51.00;1.00
3037;DHT22;1528;52.550;13.408;2022-07-22T14:03:03;52.10;1.00
3037;DHT22;1528;52.550;13.408;2022-07-22T14:05:50;51.70;1.00
3037;DHT22;1528;52.550;13.408;2022-07-22T14:08:37;49.20;1.00
3037;DHT22;1528;52.550;13.408;2022-07-22T14:11:22;49.40;1.00
3037;DHT22;1528;52.550;13.408;2022-07-22T14:14:08;51.30;1.00
3037;DHT22;1528;52.550;13.408;2022-07-22T14:16:53;51.00;1.00
3037;DHT22;1528;52.550;13.408;2022-07-22T14:19:39;49.60;1.00
3037;DHT22;1528;52.550;13.408;2022-07-22T14:22:24;48.90;1.00
3037;DHT22;1528;52.550;13.408;2022-07-22T14:25:11;47.00;1.00
3037;DHT22;1528;52.550;13.408;2022-07-22T14:28:09;46.30;1.00
3037;DHT22;1528;52.550;13.408;2022-07-22T14:30:56;49.30;1.00
3037;DHT22;1528;52.550;13.408;2022-07-22T14:33:42;50.60;1.00
3037;DHT22;1528;52.550;13.408;2022-07-22T14:36:27;50.50;1.00
3037;DHT22;1528;52.550;13.408;2022-07-22T14:39:13;51.70;1.00
3037;DHT22;1528;52.550;13.408;2022-07-22T14:42:00;53.70;1.00
3037;DHT22;1528;52.550;13.408;2022-07-22T14:44:45;52.20;1.00
3037;DHT22;1528;52.550;13.408;2022-07-22T14:47:31;52.60;1.00
3037;DHT22;1528;52.550;13.408;2022-07-22T14:50:18;52.40;1.00
3037;DHT22;1528;52.550;13.408;2022-07-22T14:53:03;52.20;1.00
3037;DHT22;1528;52.550;13.408;2022-07-22T14:55:49;51.10;1.00
3037;DHT22;1528;52.550;13.408;2022-07-22T14:58:38;50.50;1.00
3037;DHT22;1528;52.550;13.408;2022-07-22T15:01:23;50.30;1.00
3037;DHT22;1528;52.550;13.408;2022-07-22T15:04:09;50.70;1.00
3037;DHT22;1528;52.550;13.408;2022-07-22T15:06:54;50.00;1.00
3037;DHT22;1528;52.550;13.408;2022-07-22T15:09:40;48.00;1.00
3037;DHT22;1528;52.550;13.408;2022-07-22T15:12:25;46.60;1.00
3037;DHT22;1528;52.550;13.408;2022-07-22T15:15:12;43.40;1.00
3037;DHT22;1528;52.550;13.408;2022-07-22T15:17:58;39.40;1.00
3037;DHT22;1528;52.550;13.408;2022-07-22T15:20:43;38.20;1.00
3037;DHT22;1528;52.550;13.408;2022-07-22T15:23:34;37.00;1.00
3037;DHT22;1528;52.550;13.408;2022-07-22T15:26:27;35.60;1.00
3037;DHT22;1528;52.550;13.408;2022-07-22T15:29:13;34.80;1.00
3037;DHT22;1528;52.550;13.408;2022-07-22T15:31:59;34.10;1.00
3037;DHT22;1528;52.550;13.408;2022-07-22T15:34:45;33.10;1.00
3037;DHT22;1528;52.550;13.408;2022-07-22T15:37:31;33.10;1.00
3037;DHT22;1528;52.550;13.408;2022-07-22T15:40:16;33.00;1.00
3037;DHT22;1528;52.550;13.408;2022-07-22T15:43:02;31.10;1.00
3037;DHT22;1528;52.550;13.408;2022-07-22T15:45:48;31.40;1.30
3037;DHT22;1528;52.550;13.408;2022-07-22T15:48:35;31.10;1.40
3037;DHT22;1528;52.550;13.408;2022-07-22T15:51:20;30.90;1.90
3037;DHT22;1528;52.550;13.408;2022-07-22T15:54:06;31.00;1.50
3037;DHT22;1528;52.550;13.408;2022-07-22T15:56:51;31.20;1.40
3037;DHT22;1528;52.550;13.408;2022-07-22T15:59:57;30.60;2.00
3037;DHT22;1528;52.550;13.408;2022-07-22T16:02:41;30.40;2.50
3037;DHT22;1528;52.550;13.408;2022-07-22T16:05:28;30.50;2.30
3037;DHT22;1528;52.550;13.408;2022-07-22T16:08:14;30.50;2.40
3037;DHT22;1528;52.550;13.408;2022-07-22T16:10:59;30.20;2.90
3037;DHT22;1528;52.550;13.408;2022-07-22T16:13:45;29.90;3.20
3037;DHT22;1528;52.550;13.408;2022-07-22T16:16:32;29.80;4.00
3037;DHT22;1528;52.550;13.408;2022-07-22T16:19:18;29.80;3.90
3037;DHT22;1528;52.550;13.408;2022-07-22T16:22:05;29.60;4.40
3037;DHT22;1528;52.550;13.408;2022-07-22T16:24:50;29.30;4.70
3037;DHT22;1528;52.550;13.408;2022-07-22T16:27:36;28.80;5.20
3037;DHT22;1528;52.550;13.408;2022-07-22T16:30:21;28.70;5.60
3037;DHT22;1528;52.550;13.408;2022-07-22T16:33:07;28.80;5.90
3037;DHT22;1528;52.550;13.408;2022-07-22T16:35:53;28.80;6.00
3037;DHT22;1528;52.550;13.408;2022-07-22T16:38:40;28.90;5.70
3037;DHT22;1528;52.550;13.408;2022-07-22T16:41:25;28.30;6.60
3037;DHT22;1528;52.550;13.408;2022-07-22T16:44:10;27.70;7.80
3037;DHT22;1528;52.550;13.408;2022-07-22T16:46:56;27.10;9.00
3037;DHT22;1528;52.550;13.408;2022-07-22T16:49:41;27.10;9.00
3037;DHT22;1528;52.550;13.408;2022-07-22T16:52:27;27.30;8.70
3037;DHT22;1528;52.550;13.408;2022-07-22T16:55:14;27.40;8.40
3037;DHT22;1528;52.550;13.408;2022-07-22T16:57:59;27.10;8.80
3037;DHT22;1528;52.550;13.408;2022-07-22T17:00:45;26.80;9.20
3037;DHT22;1528;52.550;13.408;2022-07-22T17:03:30;26.70;9.70
3037;DHT22;1528;52.550;13.408;2022-07-22T17:06:16;26.60;9.90
3037;DHT22;1528;52.550;13.408;2022-07-22T17:09:03;26.50;10.30
3037;DHT22;1528;52.550;13.408;2022-07-22T17:11:50;26.60;10.20
3037;DHT22;1528;52.550;13.408;2022-07-22T17:14:36;26.40;10.50
3037;DHT22;1528;52.550;13.408;2022-07-22T17:17:21;26.40;10.60
3037;DHT22;1528;52.550;13.408;2022-07-22T17:20:11;26.30;10.50
3037;DHT22;1528;52.550;13.408;2022-07-22T17:22:57;26.20;10.40
3037;DHT22;1528;52.550;13.408;2022-07-22T17:25:43;26.20;10.50
3037;DHT22;1528;52.550;13.408;2022-07-22T17:28:30;26.10;10.80
3037;DHT22;1528;52.550;13.408;2022-07-22T17:31:16;26.10;11.00
3037;DHT22;1528;52.550;13.408;2022-07-22T17:34:01;26.00;10.90
3037;DHT22;1528;52.550;13.408;2022-07-22T17:36:46;25.90;11.10
3037;DHT22;1528;52.550;13.408;2022-07-22T17:39:32;25.60;11.80
3037;DHT22;1528;52.550;13.408;2022-07-22T17:42:18;25.30;12.50
3037;DHT22;1528;52.550;13.408;2022-07-22T17:45:06;25.10;12.80
3037;DHT22;1528;52.550;13.408;2022-07-22T17:47:52;25.10;13.00
3037;DHT22;1528;52.550;13.408;2022-07-22T17:50:38;25.00;13.00
3037;DHT22;1528;52.550;13.408;2022-07-22T17:53:24;24.90;13.40
3037;DHT22;1528;52.550;13.408;2022-07-22T17:56:13;24.70;13.90